Time;durP1;ratioP1;P1;durP2;ratioP2;P2;SDS_P1;SDS_P2;PMS_P1;PMS_P2;Temp;Humidity;BMP_temperature;BMP_pressure;BME280_temperature;BME280_humidity;BME280_pressure;Samples;Min_cycle;Max_cycle;Signal;HPM_P1;HPM_P2
2024/01/04 00:00:59;;;;;;;;;;;7.50;99.90;;;6.78;100.00;96270.88;4999625;28;1587;-67
2024/01/04 00:03:26;;;;;;;;;;;7.50;99.90;;;6.70;100.00;96277.25;5001849;28;1322;-67
2024/01/04 00:05:53;;;;;;;;;;;7.40;99.90;;;6.69;100.00;96295.34;5003841;28;3076;-67
2024/01/04 00:08:20;;;;;;;;;;;7.30;99.90;;;6.75;100.00;96282.19;5001737;28;1479;-67
2024/01/04 00:10:47;;;;;;;;;;;7.40;99.90;;;6.71;100.00;96296.13;4999665;28;1589;-67
2024/01/04 00:13:14;;;;;;;;;;;7.40;99.90;;;6.68;100.00;96312.56;5002001;28;1922;-67
2024/01/04 00:15:42;;;;;;;;;;;7.30;99.90;;;6.74;100.00;96295.97;5016092;28;1411;-66
2024/01/04 00:18:09;;;;;;;;;;;7.50;99.90;;;6.63;100.00;96241.50;5002245;28;1432;-67
2024/01/04 00:20:36;;;;;;;;;;;7.40;99.90;;;6.72;100.00;96271.16;5001797;28;1941;-65
2024/01/04 00:23:04;;;;;;;;;;;7.40;99.90;;;6.66;100.00;96296.34;5003682;28;1466;-67
2024/01/04 00:25:31;;;;;;;;;;;7.40;99.90;;;6.63;100.00;96286.16;5004123;28;1388;-67
2024/01/04 00:28:00;;;;;;;;;;;7.40;99.90;;;6.65;100.00;96306.72;5001286;28;1505;-66
2024/01/04 00:30:27;;;;;;;;;;;7.30;99.90;;;6.73;100.00;96314.94;5003649;28;1525;-66
2024/01/04 00:32:54;;;;;;;;;;;7.30;99.90;;;6.61;100.00;96303.44;5003686;28;2001;-66
2024/01/04 00:35:22;;;;;;;;;;;7.40;99.90;;;6.67;100.00;96321.19;5003016;28;1380;-67
2024/01/04 00:37:49;;;;;;;;;;;7.40;99.90;;;6.71;100.00;96329.63;5004969;28;1404;-66
2024/01/04 00:40:16;;;;;;;;;;;7.40;99.90;;;6.76;100.00;96332.00;5003719;28;1407;-66
2024/01/04 00:42:42;;;;;;;;;;;7.40;99.90;;;6.72;100.00;96331.28;5000873;28;1377;-67
2024/01/04 00:45:09;;;;;;;;;;;7.30;99.90;;;6.62;100.00;96312.03;5005407;28;1375;-65
2024/01/04 00:47:36;;;;;;;;;;;7.40;99.90;;;6.66;100.00;96318.69;5002379;28;2906;-66
2024/01/04 00:50:04;;;;;;;;;;;7.40;99.90;;;6.74;100.00;96334.63;5015315;28;1678;-66
2024/01/04 00:52:30;;;;;;;;;;;7.40;99.90;;;6.94;100.00;96336.28;5003562;28;2022;-66
2024/01/04 00:54:57;;;;;;;;;;;7.40;99.90;;;6.79;100.00;96331.84;5003258;28;1448;-65
2024/01/04 00:57:24;;;;;;;;;;;7.50;99.90;;;6.91;100.00;96339.84;5001004;28;1476;-67
2024/01/04 00:59:51;;;;;;;;;;;7.50;99.90;;;6.91;100.00;96336.41;5003111;28;1593;-66
2024/01/04 01:02:17;;;;;;;;;;;7.50;99.90;;;6.88;100.00;96331.41;5003373;28;1993;-67
2024/01/04 01:04:44;;;;;;;;;;;7.60;99.90;;;6.92;100.00;96325.19;5002361;28;1478;-67
2024/01/04 01:07:12;;;;;;;;;;;7.60;99.90;;;6.94;100.00;96346.59;5002858;28;1492;-67
2024/01/04 01:09:39;;;;;;;;;;;7.60;99.90;;;6.84;100.00;96338.47;4999497;28;1373;-67
2024/01/04 01:12:05;;;;;;;;;;;7.50;99.90;;;6.87;100.00;96342.66;5003078;28;1346;-66
2024/01/04 01:14:33;;;;;;;;;;;7.50;99.90;;;6.86;100.00;96341.78;5001303;28;1450;-67
2024/01/04 01:17:02;;;;;;;;;;;7.50;99.90;;;6.81;100.00;96342.94;5001552;28;2118;-67
2024/01/04 01:19:28;;;;;;;;;;;7.60;99.90;;;6.96;100.00;96356.84;5003317;28;1406;-65
2024/01/04 01:21:56;;;;;;;;;;;7.50;99.90;;;6.86;100.00;96372.75;4987079;28;1389;-66
2024/01/04 01:24:22;;;;;;;;;;;7.50;99.90;;;6.93;100.00;96357.81;5002199;28;1502;-67
2024/01/04 01:26:49;;;;;;;;;;;7.50;99.90;;;7.03;100.00;96359.06;5001973;28;1439;-67
2024/01/04 01:29:16;;;;;;;;;;;7.60;99.90;;;6.99;100.00;96354.13;5004212;28;3044;-67
2024/01/04 01:31:43;;;;;;;;;;;7.50;99.90;;;6.89;100.00;96358.88;5002021;28;1675;-66
2024/01/04 01:34:10;;;;;;;;;;;7.60;99.90;;;6.86;100.00;96370.16;5002700;28;2031;-67
2024/01/04 01:36:41;;;;;;;;;;;7.60;99.90;;;6.82;100.00;96370.38;5004872;28;1397;-66
2024/01/04 01:39:11;;;;;;;;;;;7.50;99.90;;;6.67;100.00;96352.13;5006895;28;1479;-66
2024/01/04 01:41:38;;;;;;;;;;;7.50;99.90;;;6.73;100.00;96381.13;5002663;28;1326;-65
2024/01/04 01:44:05;;;;;;;;;;;7.40;99.90;;;6.83;100.00;96372.88;5000973;28;1941;-66
2024/01/04 01:46:32;;;;;;;;;;;7.40;99.90;;;6.83;100.00;96390.94;5001414;28;1405;-67
2024/01/04 01:48:58;;;;;;;;;;;7.40;99.90;;;6.78;100.00;96397.25;4984210;28;1660;-67
2024/01/04 01:51:26;;;;;;;;;;;7.40;99.90;;;6.74;100.00;96386.22;4999595;28;1375;-67
2024/01/04 01:53:54;;;;;;;;;;;7.40;99.90;;;6.75;100.00;96397.38;5001393;28;1942;-67
2024/01/04 01:56:21;;;;;;;;;;;7.40;99.90;;;6.68;100.00;96389.94;5002266;28;1362;-66
2024/01/04 01:58:48;;;;;;;;;;;7.40;99.90;;;6.73;100.00;96420.66;4998086;28;5524;-66
2024/01/04 02:01:16;;;;;;;;;;;7.40;99.90;;;6.72;100.00;96413.81;4998423;28;1405;-66
2024/01/04 02:03:43;;;;;;;;;;;7.30;99.90;;;6.67;100.00;96410.63;5001808;28;1362;-64
2024/01/04 02:06:09;;;;;;;;;;;7.30;99.90;;;6.67;100.00;96419.19;5001976;28;1337;-66
2024/01/04 02:08:37;;;;;;;;;;;7.30;99.90;;;6.64;100.00;96432.22;5013853;28;1560;-66
2024/01/04 02:11:05;;;;;;;;;;;7.20;99.90;;;6.66;100.00;96433.00;5002884;28;1262;-65
2024/01/04 02:13:32;;;;;;;;;;;7.20;99.90;;;6.66;100.00;96425.25;5002269;28;3682;-66
2024/01/04 02:15:59;;;;;;;;;;;7.20;99.90;;;6.68;100.00;96464.72;4995727;28;1290;-66
2024/01/04 02:18:25;;;;;;;;;;;7.20;99.90;;;6.65;100.00;96451.94;5003708;28;1365;-65
2024/01/04 02:20:52;;;;;;;;;;;7.20;99.90;;;6.70;100.00;96450.00;5000576;28;1368;-67
2024/01/04 02:23:19;;;;;;;;;;;7.20;99.90;;;6.68;100.00;96462.13;5000969;28;1385;-66
2024/01/04 02:25:46;;;;;;;;;;;7.20;99.90;;;6.69;100.00;96470.69;4998087;28;2040;-66
2024/01/04 02:28:13;;;;;;;;;;;7.20;99.90;;;6.57;100.00;96454.03;4997418;28;1518;-65
2024/01/04 02:30:40;;;;;;;;;;;7.20;99.90;;;6.59;100.00;96461.69;5002090;28;1694;-67
2024/01/04 02:33:07;;;;;;;;;;;7.20;99.90;;;6.63;100.00;96470.97;5000952;28;1907;-66
2024/01/04 02:35:34;;;;;;;;;;;7.20;99.90;;;6.60;100.00;96464.22;4999911;28;1389;-66
2024/01/04 02:38:01;;;;;;;;;;;7.20;99.90;;;6.59;100.00;96467.69;5001668;28;1385;-66
2024/01/04 02:40:29;;;;;;;;;;;7.20;99.90;;;6.61;100.00;96489.06;4998295;28;2304;-64
2024/01/04 02:42:56;;;;;;;;;;;7.20;99.90;;;6.67;100.00;96517.16;4997502;28;1468;-66
2024/01/04 02:45:23;;;;;;;;;;;7.20;99.90;;;6.69;100.00;96488.75;5001465;28;1319;-65
2024/01/04 02:47:50;;;;;;;;;;;7.30;99.90;;;6.71;100.00;96484.38;4998242;28;1412;-65
2024/01/04 02:50:18;;;;;;;;;;;7.30;99.90;;;6.73;100.00;96492.00;4999577;28;1429;-65
2024/01/04 02:52:45;;;;;;;;;;;7.20;99.90;;;6.64;100.00;96501.84;4997162;28;1994;-67
2024/01/04 02:55:12;;;;;;;;;;;7.20;99.90;;;6.68;100.00;96493.06;4999526;28;2976;-65
2024/01/04 02:57:39;;;;;;;;;;;7.20;99.90;;;6.67;100.00;96509.44;5000685;28;5091;-67
2024/01/04 03:00:07;;;;;;;;;;;7.30;99.90;;;6.60;100.00;96494.31;5013162;28;1560;-67
2024/01/04 03:02:34;;;;;;;;;;;7.30;99.90;;;6.72;100.00;96519.53;4999603;28;1414;-64
2024/01/04 03:05:01;;;;;;;;;;;7.30;99.90;;;6.69;100.00;96517.13;4999906;28;1357;-65
2024/01/04 03:07:31;;;;;;;;;;;7.30;99.90;;;6.72;100.00;96522.13;4999959;28;2028;-65
2024/01/04 03:09:59;;;;;;;;;;;7.30;99.90;;;6.80;100.00;96514.06;5001287;28;1103;-68
2024/01/04 03:12:26;;;;;;;;;;;7.40;99.90;;;6.65;100.00;96515.56;5010945;28;1384;-65
2024/01/04 03:14:53;;;;;;;;;;;7.30;99.90;;;6.77;100.00;96539.97;5001085;28;1918;-67
2024/01/04 03:17:19;;;;;;;;;;;7.30;99.90;;;6.67;100.00;96534.41;5002595;28;1085;-67
2024/01/04 03:19:46;;;;;;;;;;;7.30;99.90;;;6.72;100.00;96529.88;5002691;28;1381;-66
2024/01/04 03:22:13;;;;;;;;;;;7.40;99.90;;;6.67;100.00;96549.88;5000687;28;1989;-67
2024/01/04 03:24:40;;;;;;;;;;;7.30;99.90;;;6.66;100.00;96561.94;5000807;28;1428;-67
2024/01/04 03:27:07;;;;;;;;;;;7.30;99.90;;;6.72;100.00;96584.03;4997093;28;1322;-67
2024/01/04 03:29:34;;;;;;;;;;;7.30;99.90;;;6.69;100.00;96568.69;4995003;28;1409;-66
2024/01/04 03:32:01;;;;;;;;;;;7.30;99.90;;;6.62;100.00;96567.28;4994832;28;1378;-66
2024/01/04 03:34:28;;;;;;;;;;;7.30;99.90;;;6.65;100.00;96569.72;4998535;28;1906;-67
2024/01/04 03:36:55;;;;;;;;;;;7.30;99.90;;;6.73;100.00;96571.97;4994217;28;2971;-67
2024/01/04 03:39:22;;;;;;;;;;;7.30;99.90;;;6.64;100.00;96530.22;5016232;28;1251;-65
2024/01/04 03:41:49;;;;;;;;;;;7.30;99.90;;;6.72;100.00;96575.44;4997946;28;1513;-67
2024/01/04 03:44:15;;;;;;;;;;;7.30;99.90;;;6.69;100.00;96579.00;4999663;28;1256;-66
2024/01/04 03:46:42;;;;;;;;;;;7.30;99.90;;;6.66;100.00;96579.97;4998300;28;1412;-66
2024/01/04 03:49:11;;;;;;;;;;;7.30;99.90;;;6.70;100.00;96588.41;4997817;28;1747;-67
2024/01/04 03:51:38;;;;;;;;;;;7.20;99.90;;;6.61;100.00;96584.47;4993436;28;2175;-66
2024/01/04 03:54:04;;;;;;;;;;;7.20;99.90;;;6.62;100.00;96595.66;4999738;28;1906;-65
2024/01/04 03:56:31;;;;;;;;;;;7.30;99.90;;;6.60;100.00;96580.22;5000028;28;1250;-68
2024/01/04 03:58:59;;;;;;;;;;;7.20;99.90;;;6.65;100.00;96622.13;5003000;28;1441;-66
2024/01/04 04:01:26;;;;;;;;;;;7.20;99.90;;;6.73;100.00;96602.91;5003967;28;1399;-67
2024/01/04 04:03:52;;;;;;;;;;;7.30;99.90;;;6.71;100.00;96615.88;5013135;28;1965;-67
2024/01/04 04:06:20;;;;;;;;;;;7.30;99.90;;;6.74;100.00;96602.84;5002843;28;1405;-66
2024/01/04 04:08:47;;;;;;;;;;;7.30;99.90;;;6.72;100.00;96596.91;5000299;28;1625;-68
2024/01/04 04:11:18;;;;;;;;;;;7.30;99.90;;;6.65;100.00;96600.66;4999586;28;1326;-66
2024/01/04 04:13:45;;;;;;;;;;;7.30;99.90;;;6.64;100.00;96604.16;4998684;28;1997;-67
2024/01/04 04:16:12;;;;;;;;;;;7.30;99.90;;;6.64;100.00;96594.69;5015601;28;1602;-67
2024/01/04 04:18:39;;;;;;;;;;;7.30;99.90;;;6.75;100.00;96590.78;5002454;28;3226;-67
2024/01/04 04:21:06;;;;;;;;;;;7.40;99.90;;;6.83;100.00;96609.34;5001420;28;1434;-67
2024/01/04 04:23:32;;;;;;;;;;;7.30;99.90;;;6.74;100.00;96607.19;5002286;28;1417;-67
2024/01/04 04:26:04;;;;;;;;;;;7.40;99.90;;;6.81;100.00;96618.91;5006863;28;1770;-67
2024/01/04 04:28:32;;;;;;;;;;;7.40;99.90;;;6.78;100.00;96619.88;5002921;28;1518;-65
2024/01/04 04:30:58;;;;;;;;;;;7.40;99.90;;;6.97;100.00;96612.16;4999708;28;1226;-67
2024/01/04 04:33:26;;;;;;;;;;;7.50;99.90;;;6.82;100.00;96593.06;5004687;28;1981;-67
2024/01/04 04:35:53;;;;;;;;;;;7.50;99.90;;;6.83;100.00;96610.19;5005369;28;1365;-67
2024/01/04 04:38:27;;;;;;;;;;;7.40;99.90;;;6.79;100.00;96639.59;5001752;28;1245;-66
2024/01/04 04:40:55;;;;;;;;;;;7.40;99.90;;;6.67;100.00;96635.78;5004564;28;1424;-66
2024/01/04 04:43:22;;;;;;;;;;;7.40;99.90;;;6.65;100.00;96632.44;5003788;28;1312;-67
2024/01/04 04:45:49;;;;;;;;;;;7.30;99.90;;;6.61;100.00;96643.78;4999601;28;1038;-67
2024/01/04 04:48:16;;;;;;;;;;;7.20;99.90;;;6.62;100.00;96642.06;5006276;28;2234;-66
2024/01/04 04:50:43;;;;;;;;;;;7.30;99.90;;;6.58;100.00;96627.63;5002903;28;1161;-67
2024/01/04 04:53:10;;;;;;;;;;;7.30;99.90;;;6.62;100.00;96639.47;5000976;28;2017;-67
2024/01/04 04:55:38;;;;;;;;;;;7.20;99.90;;;6.66;100.00;96670.22;5000107;28;1334;-65
2024/01/04 04:58:04;;;;;;;;;;;7.20;99.90;;;6.65;100.00;96652.22;5004940;28;5315;-67
2024/01/04 05:00:31;;;;;;;;;;;7.30;99.90;;;6.70;100.00;96668.34;5004476;28;1141;-65
2024/01/04 05:02:58;;;;;;;;;;;7.20;99.90;;;6.73;100.00;96672.53;5006115;28;1313;-68
2024/01/04 05:05:25;;;;;;;;;;;7.30;99.90;;;6.65;100.00;96650.50;5020486;28;1352;-68
2024/01/04 05:07:52;;;;;;;;;;;7.30;99.90;;;6.66;100.00;96677.97;4999167;28;1154;-67
2024/01/04 05:10:19;;;;;;;;;;;7.30;99.90;;;6.72;100.00;96683.75;5003156;28;1338;-66
2024/01/04 05:12:45;;;;;;;;;;;7.30;99.90;;;6.60;100.00;96669.66;5001193;28;1300;-68
2024/01/04 05:15:12;;;;;;;;;;;7.30;99.90;;;6.55;100.00;96677.56;5001216;28;3108;-68
2024/01/04 05:17:39;;;;;;;;;;;7.30;99.90;;;6.61;100.00;96679.03;5000949;28;1113;-67
2024/01/04 05:20:07;;;;;;;;;;;7.20;99.90;;;6.58;100.00;96674.03;5003872;28;1485;-66
2024/01/04 05:22:34;;;;;;;;;;;7.20;99.90;;;6.54;100.00;96690.50;5001043;28;1328;-67
2024/01/04 05:25:01;;;;;;;;;;;7.20;99.90;;;6.56;100.00;96702.44;5004073;28;1105;-67
2024/01/04 05:27:27;;;;;;;;;;;7.20;99.90;;;6.58;100.00;96708.38;5000763;28;1450;-67
2024/01/04 05:29:54;;;;;;;;;;;7.20;99.90;;;6.54;100.00;96700.81;5002296;28;2171;-66
2024/01/04 05:32:21;;;;;;;;;;;7.20;99.90;;;6.61;100.00;96702.25;5002039;28;1385;-66
2024/01/04 05:34:48;;;;;;;;;;;7.20;99.90;;;6.60;100.00;96719.47;4999820;28;2009;-66
2024/01/04 05:37:15;;;;;;;;;;;7.20;99.90;;;6.47;100.00;96715.69;5005153;28;1148;-66
2024/01/04 05:39:42;;;;;;;;;;;7.20;99.90;;;6.51;100.00;96730.16;5003168;28;1377;-66
2024/01/04 05:42:09;;;;;;;;;;;7.10;99.90;;;6.60;100.00;96727.19;5004720;28;1284;-66
2024/01/04 05:52:04;;;;;;;;;;;7.10;99.90;;;6.57;100.00;96754.84;5004004;28;1353;-66
2024/01/04 05:54:31;;;;;;;;;;;7.10;99.90;;;6.61;100.00;96740.94;5003266;28;1902;-67
2024/01/04 05:56:58;;;;;;;;;;;7.10;99.90;;;6.44;100.00;96749.34;4999110;28;5095;-69
2024/01/04 05:59:25;;;;;;;;;;;7.10;99.90;;;6.53;100.00;96750.72;4985759;28;1095;-66
2024/01/04 06:01:52;;;;;;;;;;;7.10;99.90;;;6.44;100.00;96746.78;5003723;28;1105;-66
2024/01/04 06:04:19;;;;;;;;;;;7.00;99.90;;;6.44;100.00;96762.22;5003646;28;1540;-67
2024/01/04 06:06:47;;;;;;;;;;;7.10;99.90;;;6.44;100.00;96757.91;5003223;28;1212;-66
2024/01/04 06:09:14;;;;;;;;;;;7.00;99.90;;;6.48;100.00;96753.50;5002788;28;1436;-66
2024/01/04 06:11:41;;;;;;;;;;;7.10;99.90;;;6.50;100.00;96756.84;4999146;28;2162;-67
2024/01/04 06:14:08;;;;;;;;;;;7.10;99.90;;;6.43;100.00;96742.50;4999982;28;1902;-67
2024/01/04 06:16:34;;;;;;;;;;;7.10;99.90;;;6.44;100.00;96759.66;4999315;28;1194;-66
2024/01/04 06:19:01;;;;;;;;;;;7.10;99.90;;;6.44;100.00;96718.41;4999449;28;1046;-67
2024/01/04 06:21:28;;;;;;;;;;;7.10;99.90;;;6.40;100.00;96746.03;5000322;28;1367;-66
2024/01/04 06:23:58;;;;;;;;;;;7.10;99.90;;;6.43;100.00;96766.56;4999743;28;1450;-68
2024/01/04 06:26:25;;;;;;;;;;;7.00;99.90;;;6.39;100.00;96759.00;5001494;28;2150;-66
2024/01/04 06:28:52;;;;;;;;;;;7.00;99.90;;;6.40;100.00;96771.81;5001551;28;1165;-66
2024/01/04 06:31:19;;;;;;;;;;;7.00;99.90;;;6.49;100.00;96773.19;5005078;28;1377;-66
2024/01/04 06:33:46;;;;;;;;;;;7.00;99.90;;;6.36;100.00;96759.94;5003863;28;1934;-68
2024/01/04 06:36:13;;;;;;;;;;;7.00;99.90;;;6.39;100.00;96770.16;5001465;28;1292;-68
2024/01/04 06:38:40;;;;;;;;;;;7.00;99.90;;;6.39;100.00;96772.72;5019954;28;3082;-68
2024/01/04 06:41:10;;;;;;;;;;;7.00;99.90;;;6.45;100.00;96774.22;5000906;28;1054;-67
2024/01/04 06:43:37;;;;;;;;;;;7.00;99.90;;;6.45;100.00;96780.22;5000622;28;1376;-67
2024/01/04 06:46:04;;;;;;;;;;;7.00;99.90;;;6.32;100.00;96768.72;4998763;28;1369;-67
2024/01/04 06:48:31;;;;;;;;;;;7.00;99.90;;;6.33;100.00;96766.97;4998416;28;1221;-68
2024/01/04 06:50:58;;;;;;;;;;;7.00;99.90;;;6.33;100.00;96811.63;5000920;28;1063;-67
2024/01/04 06:53:26;;;;;;;;;;;7.00;99.90;;;6.33;100.00;96782.44;5019309;28;2115;-68
2024/01/04 06:55:52;;;;;;;;;;;7.00;99.90;;;6.30;100.00;96760.19;4998238;28;1965;-68
2024/01/04 06:58:20;;;;;;;;;;;7.00;99.90;;;6.33;100.00;96816.78;4999185;28;5147;-67
2024/01/04 07:00:47;;;;;;;;;;;6.90;99.90;;;6.38;100.00;96788.25;4997786;28;1330;-69
2024/01/04 07:03:14;;;;;;;;;;;7.00;99.90;;;6.37;100.00;96787.41;5006187;28;1355;-69
2024/01/04 07:05:41;;;;;;;;;;;7.00;99.90;;;6.40;100.00;96817.38;5002445;28;1084;-68
2024/01/04 07:08:08;;;;;;;;;;;7.00;99.90;;;6.35;100.00;96824.44;5002152;28;2096;-68
2024/01/04 07:10:35;;;;;;;;;;;7.00;99.90;;;6.34;100.00;96794.41;5000142;28;1144;-68
2024/01/04 07:13:01;;;;;;;;;;;7.00;99.90;;;6.31;100.00;96784.22;5017979;28;1398;-68
2024/01/04 07:15:28;;;;;;;;;;;7.00;99.90;;;6.31;100.00;96791.97;4997606;28;1911;-69
2024/01/04 07:17:55;;;;;;;;;;;7.00;99.90;;;6.28;100.00;96809.22;4999047;28;1339;-68
2024/01/04 07:20:25;;;;;;;;;;;7.00;99.90;;;6.32;100.00;96799.63;5001061;28;1495;-68
2024/01/04 07:22:53;;;;;;;;;;;7.00;99.90;;;6.30;100.00;96810.91;5000810;28;3425;-66
2024/01/04 07:25:22;;;;;;;;;;;7.00;99.90;;;6.25;100.00;96786.16;5001383;28;1514;-69
2024/01/04 07:27:49;;;;;;;;;;;6.90;99.90;;;6.33;100.00;96821.09;4996678;28;1217;-66
2024/01/04 07:30:17;;;;;;;;;;;6.90;99.90;;;6.25;100.00;96791.28;5000934;28;1322;-68
2024/01/04 07:32:44;;;;;;;;;;;6.90;99.90;;;6.24;100.00;96817.94;5000591;28;2078;-69
2024/01/04 07:35:12;;;;;;;;;;;6.90;99.90;;;6.23;100.00;96807.72;4998913;28;2116;-67
2024/01/04 07:37:43;;;;;;;;;;;6.90;99.90;;;6.24;100.00;96836.00;5003242;28;1297;-67
2024/01/04 07:40:11;;;;;;;;;;;6.90;99.90;;;6.23;100.00;96846.38;5003757;28;1066;-68
2024/01/04 07:42:38;;;;;;;;;;;6.90;99.90;;;6.27;100.00;96833.31;5016250;28;1309;-67
2024/01/04 07:45:06;;;;;;;;;;;6.90;99.90;;;6.28;100.00;96822.09;5002956;28;1460;-67
2024/01/04 07:47:36;;;;;;;;;;;6.90;99.90;;;6.27;100.00;96824.72;5005536;28;1703;-68
2024/01/04 07:50:04;;;;;;;;;;;6.90;99.90;;;6.13;100.00;96811.53;5001947;28;2199;-68
2024/01/04 07:52:32;;;;;;;;;;;6.90;99.90;;;6.17;100.00;96820.81;4998339;28;1443;-66
2024/01/04 07:54:59;;;;;;;;;;;6.80;99.90;;;6.23;100.00;96834.31;5002171;28;1985;-68
2024/01/04 07:57:29;;;;;;;;;;;6.90;99.90;;;6.15;100.00;96830.34;5007141;28;5099;-67
2024/01/04 07:59:56;;;;;;;;;;;6.80;99.90;;;6.16;100.00;96826.84;5006224;28;1416;-67
2024/01/04 08:02:25;;;;;;;;;;;6.90;99.90;;;6.15;100.00;96822.63;5007923;28;1308;-68
2024/01/04 08:04:53;;;;;;;;;;;6.90;99.90;;;6.22;100.00;96848.09;5001497;28;3100;-67
2024/01/04 08:07:20;;;;;;;;;;;6.90;99.90;;;6.21;100.00;96841.25;5005314;28;1209;-67
2024/01/04 08:09:47;;;;;;;;;;;6.90;99.90;;;6.21;100.00;96825.81;5001093;28;1382;-67
2024/01/04 08:12:13;;;;;;;;;;;6.90;99.90;;;6.27;100.00;96847.91;5007962;28;1304;-69
2024/01/04 08:14:40;;;;;;;;;;;6.90;99.90;;;6.25;100.00;96831.69;5004777;28;1903;-69
2024/01/04 08:17:08;;;;;;;;;;;6.90;99.90;;;6.22;100.00;96865.28;5018863;28;2080;-69
2024/01/04 08:19:34;;;;;;;;;;;6.90;99.90;;;6.24;100.00;96851.44;5002912;28;1125;-68
2024/01/04 08:22:02;;;;;;;;;;;6.90;99.90;;;6.22;100.00;96839.53;5018794;28;1158;-68
2024/01/04 08:24:29;;;;;;;;;;;6.90;99.90;;;6.30;100.00;96826.38;5019466;28;1445;-68
2024/01/04 08:26:57;;;;;;;;;;;6.90;99.90;;;6.44;100.00;96837.81;5001662;28;1420;-68
2024/01/04 08:29:25;;;;;;;;;;;6.90;99.90;;;6.34;100.00;96835.63;5001515;28;1445;-67
2024/01/04 08:31:51;;;;;;;;;;;6.90;99.90;;;6.37;100.00;96843.28;5006047;28;2017;-68
2024/01/04 08:34:18;;;;;;;;;;;6.90;99.90;;;6.29;100.00;96833.25;5006003;28;1902;-67
2024/01/04 08:36:45;;;;;;;;;;;7.00;99.90;;;6.34;100.00;96836.50;5002318;28;1381;-68
2024/01/04 08:39:13;;;;;;;;;;;7.00;99.90;;;6.39;100.00;96850.06;5005596;28;1417;-69
2024/01/04 08:41:40;;;;;;;;;;;7.00;99.90;;;6.22;100.00;96852.41;5002576;28;1363;-67
2024/01/04 08:44:07;;;;;;;;;;;6.90;99.90;;;6.27;100.00;96837.59;5004087;28;1312;-68
2024/01/04 08:46:37;;;;;;;;;;;7.00;99.90;;;6.25;100.00;96847.16;5019432;28;3054;-68
2024/01/04 08:49:04;;;;;;;;;;;6.90;99.90;;;6.32;100.00;96860.63;5003023;28;1102;-69
2024/01/04 08:51:33;;;;;;;;;;;7.00;99.90;;;6.45;100.00;96860.16;5004857;28;1370;-68
2024/01/04 08:54:01;;;;;;;;;;;7.00;99.90;;;6.33;100.00;96867.47;5004201;28;1305;-68
2024/01/04 08:56:28;;;;;;;;;;;7.00;99.90;;;6.34;100.00;96875.16;5007056;28;1969;-68
2024/01/04 08:58:55;;;;;;;;;;;7.00;99.90;;;6.30;100.00;96865.03;5001639;28;5676;-68
2024/01/04 09:01:21;;;;;;;;;;;7.00;99.90;;;6.30;100.00;96875.34;5001375;28;2266;-69
2024/01/04 09:03:49;;;;;;;;;;;7.00;99.90;;;6.39;100.00;96893.03;5004923;28;1433;-67
2024/01/04 09:06:16;;;;;;;;;;;7.00;99.90;;;6.44;100.00;96891.97;5006723;28;1281;-68
2024/01/04 09:08:43;;;;;;;;;;;7.00;99.90;;;6.38;100.00;96894.75;5000793;28;1385;-68
2024/01/04 09:11:10;;;;;;;;;;;7.10;99.90;;;6.37;100.00;96866.47;5015483;28;912;-69
2024/01/04 09:13:37;;;;;;;;;;;7.00;99.90;;;6.50;100.00;96901.22;5002821;28;2033;-68
2024/01/04 09:16:04;;;;;;;;;;;7.10;99.90;;;6.44;100.00;96886.81;5000732;28;1910;-67
2024/01/04 09:18:33;;;;;;;;;;;7.10;99.90;;;6.49;100.00;96881.47;5004073;28;1182;-67
2024/01/04 09:21:00;;;;;;;;;;;7.10;99.90;;;6.63;100.00;96894.69;5003187;28;1406;-68
2024/01/04 09:23:27;;;;;;;;;;;7.20;99.90;;;6.59;100.00;96885.41;5007282;28;1265;-68
2024/01/04 09:25:53;;;;;;;;;;;7.20;99.90;;;6.61;100.00;96896.47;5002601;28;1338;-68
2024/01/04 09:28:23;;;;;;;;;;;7.30;99.90;;;6.81;100.00;96907.78;5019134;28;1264;-68
2024/01/04 09:30:50;;;;;;;;;;;7.20;99.90;;;6.84;100.00;96899.91;5001137;28;1605;-68
2024/01/04 09:33:19;;;;;;;;;;;7.30;99.90;;;6.89;100.00;96911.75;5000129;28;1438;-68
2024/01/04 09:35:46;;;;;;;;;;;7.30;99.90;;;6.75;100.00;96893.41;5003092;28;1938;-67
2024/01/04 09:38:13;;;;;;;;;;;7.40;99.90;;;6.79;100.00;96919.91;4998961;28;1393;-68
2024/01/04 09:40:40;;;;;;;;;;;7.40;99.90;;;7.06;100.00;96931.75;5003405;28;1259;-68
2024/01/04 09:43:08;;;;;;;;;;;7.40;99.90;;;7.03;100.00;96928.44;4998352;28;3066;-68
2024/01/04 09:45:37;;;;;;;;;;;7.50;99.90;;;6.90;100.00;96912.59;5002594;28;1349;-67
2024/01/04 09:48:07;;;;;;;;;;;7.50;99.90;;;6.87;100.00;96928.19;4999150;28;1657;-68
2024/01/04 09:50:50;;;;;;;;;;;7.60;99.90;;;7.06;100.00;96933.47;5013326;28;1383;-68
2024/01/04 09:53:17;;;;;;;;;;;7.50;99.90;;;6.97;100.00;96939.84;5016726;28;1378;-67
2024/01/04 09:55:43;;;;;;;;;;;7.50;99.90;;;6.76;100.00;96938.91;5000258;28;2177;-66
2024/01/04 09:58:10;;;;;;;;;;;7.50;99.90;;;6.67;100.00;96967.63;5003001;28;5155;-67
2024/01/04 10:00:37;;;;;;;;;;;7.40;99.90;;;6.60;100.00;96950.72;5018190;28;1379;-68
2024/01/04 10:03:05;;;;;;;;;;;7.40;99.90;;;6.71;100.00;96964.03;4997560;28;1589;-68
2024/01/04 10:05:33;;;;;;;;;;;7.30;99.90;;;6.66;100.00;96974.53;5002045;28;1434;-69
2024/01/04 10:08:08;;;;;;;;;;;7.20;99.90;;;6.89;100.00;96972.84;4990779;28;1315;-68
2024/01/04 10:10:35;;;;;;;;;;;7.20;99.90;;;6.79;100.00;96977.47;4985586;28;2166;-68
2024/01/04 10:13:03;;;;;;;;;;;7.30;99.90;;;6.59;100.00;96959.31;5005288;28;1679;-68
2024/01/04 10:15:31;;;;;;;;;;;7.30;99.90;;;6.60;100.00;96974.75;5001669;28;1914;-67
2024/01/04 10:17:58;;;;;;;;;;;7.40;99.90;;;6.74;100.00;96970.81;4998381;28;1071;-67
2024/01/04 10:20:25;;;;;;;;;;;7.40;99.90;;;6.84;100.00;96973.00;5005164;28;1742;-67
2024/01/04 10:22:54;;;;;;;;;;;7.40;99.90;;;6.80;100.00;96980.94;5003272;28;1378;-69
2024/01/04 10:25:22;;;;;;;;;;;7.50;99.90;;;6.87;100.00;96969.47;5004704;28;3185;-68
2024/01/04 10:27:59;;;;;;;;;;;7.50;99.90;;;6.79;100.00;96977.47;4998224;28;1112;-69
2024/01/04 10:30:26;;;;;;;;;;;7.50;99.90;;;6.93;100.00;96971.81;4999783;28;1318;-68
2024/01/04 10:32:54;;;;;;;;;;;7.50;99.90;;;6.83;100.00;96957.59;5002450;28;1356;-68
2024/01/04 10:35:27;;;;;;;;;;;7.50;99.90;;;6.79;100.00;96976.66;4998045;28;1915;-68
2024/01/04 10:38:00;;;;;;;;;;;7.50;99.90;;;6.78;100.00;96967.25;5000802;28;2171;-68
2024/01/04 10:40:27;;;;;;;;;;;7.50;99.90;;;6.93;100.00;96966.66;5004091;28;1094;-68
2024/01/04 10:42:58;;;;;;;;;;;7.60;99.90;;;7.10;100.00;96972.00;5014465;28;1287;-68
2024/01/04 10:45:27;;;;;;;;;;;7.50;99.90;;;7.16;100.00;96968.38;4999918;28;1512;-68
2024/01/04 10:47:55;;;;;;;;;;;7.50;99.90;;;6.99;100.00;96965.59;4996428;28;1174;-69
2024/01/04 10:50:25;;;;;;;;;;;7.60;99.90;;;7.00;100.00;96970.69;4999018;28;1128;-68
2024/01/04 10:52:56;;;;;;;;;;;7.60;99.90;;;6.83;100.00;96973.06;4998547;28;2101;-68
2024/01/04 10:55:24;;;;;;;;;;;7.60;99.90;;;6.76;100.00;96969.03;5002046;28;1906;-68
2024/01/04 10:57:51;;;;;;;;;;;7.50;99.90;;;6.72;100.00;96972.63;5000306;28;5178;-69
2024/01/04 11:00:18;;;;;;;;;;;7.40;99.90;;;6.51;100.00;96993.13;5000992;28;1439;-68
2024/01/04 11:02:47;;;;;;;;;;;7.30;99.90;;;6.47;100.00;97009.59;4995908;28;1292;-68
2024/01/04 11:05:14;;;;;;;;;;;7.20;99.90;;;6.24;100.00;96979.47;5003643;28;1150;-68
2024/01/04 11:07:42;;;;;;;;;;;7.10;99.90;;;6.19;100.00;97000.25;4998557;28;1384;-70
2024/01/04 11:10:10;;;;;;;;;;;7.10;99.90;;;6.18;100.00;97002.88;4999575;28;1145;-67
2024/01/04 11:12:37;;;;;;;;;;;6.90;99.90;;;6.20;100.00;97012.25;4994381;28;1428;-66
2024/01/04 11:15:05;;;;;;;;;;;6.90;99.90;;;6.26;100.00;97024.91;4996974;28;1989;-68
2024/01/04 11:17:41;;;;;;;;;;;6.90;99.90;;;6.33;100.00;97028.13;4998203;28;1314;-69
2024/01/04 11:20:17;;;;;;;;;;;6.90;99.90;;;6.31;100.00;97023.91;5014175;28;1979;-67
2024/01/04 11:23:03;;;;;;;;;;;7.00;99.90;;;6.48;100.00;97012.13;5016505;28;1353;-68
2024/01/04 11:25:48;;;;;;;;;;;7.00;99.90;;;6.50;100.00;97019.81;5000070;28;1239;-68
2024/01/04 11:28:15;;;;;;;;;;;7.10;99.90;;;6.44;100.00;97009.72;5012516;28;1208;-68
2024/01/04 11:30:59;;;;;;;;;;;7.20;99.90;;;6.38;100.00;97021.06;4996965;28;1389;-68
2024/01/04 11:33:27;;;;;;;;;;;7.10;99.90;;;6.51;100.00;97013.75;5016781;28;1344;-68
2024/01/04 11:35:55;;;;;;;;;;;7.20;99.90;;;6.58;100.00;97027.28;5007503;28;3128;-68
2024/01/04 11:38:32;;;;;;;;;;;7.30;99.90;;;6.66;100.00;97023.53;5017473;28;1166;-68
2024/01/04 11:40:58;;;;;;;;;;;7.20;99.90;;;6.80;100.00;97017.88;5002745;28;1272;-68
2024/01/04 11:43:36;;;;;;;;;;;7.30;99.90;;;6.77;100.00;97007.66;5003392;28;1288;-68